createdAt,value
2018-09-30T00:01:03.678Z,1.80
2018-09-30T00:03:07.918Z,1.80
2018-09-30T00:05:12.153Z,1.80
2018-09-30T00:07:16.339Z,1.47
2018-09-30T00:09:24.591Z,2.10
2018-09-30T00:11:28.900Z,2.03
2018-09-30T00:13:33.039Z,2.60
2018-09-30T00:15:37.322Z,2.10
2018-09-30T00:17:41.539Z,2.43
2018-09-30T00:19:45.789Z,2.03
2018-09-30T00:21:50.197Z,2.10
2018-09-30T00:23:59.372Z,1.60
2018-09-30T00:26:08.731Z,2.53
2018-09-30T00:28:12.938Z,2.00
2018-09-30T00:30:17.175Z,1.87
2018-09-30T00:32:21.348Z,2.07
2018-09-30T00:34:29.491Z,2.10
2018-09-30T00:36:33.768Z,1.97
2018-09-30T00:38:37.914Z,2.23
2018-09-30T00:40:42.529Z,2.27
2018-09-30T00:42:46.745Z,2.10
2018-09-30T00:44:50.953Z,2.10
2018-09-30T00:46:55.170Z,2.20
2018-09-30T00:48:59.377Z,2.00
2018-09-30T00:51:03.657Z,3.03
2018-09-30T00:53:07.849Z,2.30
2018-09-30T00:55:12.121Z,2.60
2018-09-30T00:57:16.330Z,2.77
2018-09-30T00:59:20.494Z,2.17
2018-09-30T01:01:24.682Z,2.57
2018-09-30T01:03:28.880Z,2.87
2018-09-30T01:05:33.025Z,2.93
2018-09-30T01:07:37.275Z,2.50
2018-09-30T01:09:41.589Z,2.37
2018-09-30T01:11:46.151Z,2.57
2018-09-30T01:13:50.325Z,2.60
2018-09-30T01:15:54.526Z,2.40
2018-09-30T01:17:58.744Z,2.13
2018-09-30T01:20:02.994Z,1.80
2018-09-30T01:22:07.271Z,1.60
2018-09-30T01:24:11.458Z,2.00
2018-09-30T01:26:15.611Z,2.00
2018-09-30T01:28:19.815Z,1.90
2018-09-30T01:30:24.007Z,1.93
2018-09-30T01:32:28.194Z,2.07
2018-09-30T01:34:32.413Z,2.67
2018-09-30T01:36:36.569Z,1.97
2018-09-30T01:38:40.784Z,3.17
2018-09-30T01:40:45.026Z,2.40
2018-09-30T01:42:49.239Z,1.83
2018-09-30T01:44:53.440Z,1.90
2018-09-30T01:47:22.304Z,2.37
2018-09-30T01:49:27.379Z,3.00
2018-09-30T01:51:31.541Z,2.10
2018-09-30T01:53:36.075Z,2.10
2018-09-30T01:55:40.271Z,1.80
2018-09-30T01:57:44.520Z,1.90
2018-09-30T01:59:48.706Z,1.77
2018-09-30T02:01:53.014Z,1.83
2018-09-30T02:03:57.191Z,1.67
2018-09-30T02:06:01.503Z,1.70
2018-09-30T02:08:05.694Z,1.70
2018-09-30T02:10:09.877Z,1.93
2018-09-30T02:12:14.114Z,1.80
2018-09-30T02:14:18.335Z,1.70
2018-09-30T02:16:22.577Z,1.73
2018-09-30T02:18:27.016Z,1.57
2018-09-30T02:20:31.279Z,1.77
2018-09-30T02:22:35.456Z,1.93
2018-09-30T02:24:39.655Z,1.50
2018-09-30T02:26:43.935Z,1.70
2018-09-30T02:28:48.175Z,1.57
2018-09-30T02:30:52.418Z,1.80
2018-09-30T02:32:56.592Z,1.73
2018-09-30T02:35:00.872Z,2.30
2018-09-30T02:37:05.672Z,2.10
2018-09-30T02:39:12.005Z,1.70
2018-09-30T02:41:16.508Z,2.10
2018-09-30T02:43:20.778Z,2.00
2018-09-30T02:45:25.063Z,3.27
2018-09-30T02:47:29.358Z,2.70
2018-09-30T02:49:33.794Z,3.20
2018-09-30T02:51:37.989Z,2.30
2018-09-30T02:53:42.975Z,2.30
2018-09-30T02:55:48.013Z,3.47
2018-09-30T02:57:52.722Z,2.60
2018-09-30T02:59:57.464Z,3.23
2018-09-30T03:02:02.508Z,3.03
2018-09-30T03:04:06.836Z,3.87
2018-09-30T03:06:16.236Z,3.07
2018-09-30T03:08:25.853Z,2.80
2018-09-30T03:10:30.827Z,2.60
2018-09-30T03:12:35.248Z,3.13
2018-09-30T03:14:39.774Z,3.20
2018-09-30T03:16:44.987Z,2.60
2018-09-30T03:18:49.232Z,2.30
2018-09-30T03:20:53.489Z,2.30
2018-09-30T03:22:57.743Z,2.67
2018-09-30T03:25:01.961Z,2.60
2018-09-30T03:27:06.283Z,2.40
2018-09-30T03:29:10.473Z,3.57
2018-09-30T03:31:14.837Z,3.10
2018-09-30T03:33:19.024Z,3.23
2018-09-30T03:35:23.227Z,2.93
2018-09-30T03:37:27.397Z,2.63
2018-09-30T03:39:31.594Z,2.80
2018-09-30T03:41:35.804Z,2.87
2018-09-30T03:43:40.030Z,2.47
2018-09-30T03:45:44.257Z,3.40
2018-09-30T03:47:48.451Z,2.73
2018-09-30T03:49:52.648Z,2.93
2018-09-30T03:51:56.870Z,2.23
2018-09-30T03:54:01.094Z,3.83
2018-09-30T03:56:05.254Z,2.70
2018-09-30T03:58:09.502Z,3.13
2018-09-30T04:00:13.718Z,2.83
2018-09-30T04:02:17.958Z,3.73
2018-09-30T04:04:22.188Z,3.10
2018-09-30T04:06:26.525Z,2.93
2018-09-30T04:08:30.761Z,3.00
2018-09-30T04:10:35.010Z,2.70
2018-09-30T04:12:39.240Z,2.93
2018-09-30T04:14:43.375Z,3.17
2018-09-30T04:16:47.597Z,3.10
2018-09-30T04:18:51.785Z,3.03
2018-09-30T04:20:56.059Z,3.07
2018-09-30T04:23:00.285Z,3.33
2018-09-30T04:25:04.479Z,2.93
2018-09-30T04:27:08.671Z,3.10
2018-09-30T04:29:12.900Z,2.57
2018-09-30T04:31:17.495Z,3.57
2018-09-30T04:33:21.731Z,2.00
2018-09-30T04:35:37.926Z,3.00
2018-09-30T04:37:48.170Z,3.17
2018-09-30T04:39:59.889Z,3.23
2018-09-30T04:42:06.703Z,2.67
2018-09-30T04:44:11.018Z,3.10
2018-09-30T04:46:15.949Z,3.30
2018-09-30T04:48:20.303Z,3.30
2018-09-30T04:50:29.037Z,2.83
2018-09-30T04:52:33.208Z,3.03
2018-09-30T04:54:49.109Z,3.10
2018-09-30T04:56:56.790Z,3.20
2018-09-30T04:59:07.023Z,3.33
2018-09-30T05:01:11.253Z,3.30
2018-09-30T05:03:15.428Z,3.20
2018-09-30T05:05:28.249Z,3.67
2018-09-30T05:07:32.475Z,3.50
2018-09-30T05:09:36.954Z,3.30
2018-09-30T05:11:41.143Z,3.17
2018-09-30T05:13:45.337Z,2.77
2018-09-30T05:15:49.579Z,3.00
2018-09-30T05:17:53.734Z,2.97
2018-09-30T05:19:57.962Z,3.20
2018-09-30T05:22:03.240Z,3.40
2018-09-30T05:24:07.832Z,3.20
2018-09-30T05:26:12.434Z,3.40
2018-09-30T05:28:16.753Z,3.30
2018-09-30T05:30:21.388Z,2.90
2018-09-30T05:32:26.171Z,3.00
2018-09-30T05:34:31.807Z,3.70
2018-09-30T05:36:36.225Z,4.67
2018-09-30T05:38:40.399Z,3.60
2018-09-30T05:40:44.626Z,3.70
2018-09-30T05:42:48.810Z,2.90
2018-09-30T05:44:52.964Z,3.40
2018-09-30T05:46:58.517Z,3.40
2018-09-30T05:49:02.740Z,3.57
2018-09-30T05:51:07.047Z,3.30
2018-09-30T05:53:11.261Z,3.23
2018-09-30T05:55:15.563Z,3.70
2018-09-30T05:57:19.709Z,3.30
2018-09-30T05:59:23.886Z,3.30
2018-09-30T06:01:28.575Z,3.13
2018-09-30T06:03:32.759Z,3.17
2018-09-30T06:05:36.966Z,2.60
2018-09-30T06:07:41.130Z,3.33
2018-09-30T06:09:45.408Z,2.87
2018-09-30T06:11:49.587Z,3.17
2018-09-30T06:13:53.767Z,2.80
2018-09-30T06:15:58.107Z,2.37
2018-09-30T06:18:02.255Z,3.77
2018-09-30T06:20:07.056Z,3.27
2018-09-30T06:22:11.242Z,3.10
2018-09-30T06:24:15.446Z,2.90
2018-09-30T06:26:19.658Z,2.90
2018-09-30T06:28:23.847Z,2.90
2018-09-30T06:30:28.071Z,4.27
2018-09-30T06:32:32.245Z,3.40
2018-09-30T06:34:36.441Z,3.43
2018-09-30T06:36:40.605Z,3.60
2018-09-30T06:38:44.838Z,3.77
2018-09-30T06:40:49.022Z,2.90
2018-09-30T06:42:53.278Z,3.73
2018-09-30T06:44:57.521Z,3.83
2018-09-30T06:47:01.771Z,3.40
2018-09-30T06:49:25.640Z,3.07
2018-09-30T06:51:31.323Z,3.43
2018-09-30T06:53:36.086Z,4.43
2018-09-30T06:55:40.367Z,3.97
2018-09-30T06:57:44.580Z,2.77
2018-09-30T06:59:48.793Z,3.40
2018-09-30T07:01:52.963Z,3.33
2018-09-30T07:03:57.111Z,3.80
2018-09-30T07:06:01.271Z,2.67
2018-09-30T07:08:05.524Z,2.83
2018-09-30T07:10:09.718Z,3.40
2018-09-30T07:12:13.948Z,3.93
2018-09-30T07:14:18.146Z,2.73
2018-09-30T07:16:22.370Z,3.17
2018-09-30T07:18:26.519Z,2.73
2018-09-30T07:20:30.735Z,3.17
2018-09-30T07:22:34.922Z,3.90
2018-09-30T07:24:39.086Z,3.00
2018-09-30T07:26:43.319Z,5.23
2018-09-30T07:28:47.473Z,3.70
2018-09-30T07:30:51.692Z,4.40
2018-09-30T07:32:55.842Z,3.43
2018-09-30T07:35:00.096Z,3.83
2018-09-30T07:37:04.251Z,3.07
2018-09-30T07:39:10.040Z,4.10
2018-09-30T07:41:14.264Z,3.80
2018-09-30T07:43:18.442Z,2.90
2018-09-30T07:45:22.640Z,3.27
2018-09-30T07:47:27.464Z,4.03
2018-09-30T07:49:32.474Z,3.47
2018-09-30T07:51:37.559Z,2.97
2018-09-30T07:53:41.902Z,4.00
2018-09-30T07:55:46.668Z,3.70
2018-09-30T07:57:51.261Z,3.30
2018-09-30T07:59:55.964Z,3.17
2018-09-30T08:02:00.879Z,3.63
2018-09-30T08:04:06.093Z,3.47
2018-09-30T08:06:10.575Z,3.63
2018-09-30T08:08:15.174Z,3.30
2018-09-30T08:10:19.710Z,3.67
2018-09-30T08:12:24.244Z,3.87
2018-09-30T08:14:28.751Z,4.20
2018-09-30T08:16:33.920Z,3.07
2018-09-30T08:18:38.714Z,4.00
2018-09-30T08:20:42.890Z,3.87
2018-09-30T08:22:47.073Z,4.03
2018-09-30T08:24:51.724Z,3.07
2018-09-30T08:26:55.878Z,3.57
2018-09-30T08:29:00.063Z,3.03
2018-09-30T08:31:04.275Z,3.37
2018-09-30T08:33:08.415Z,3.30
2018-09-30T08:35:12.780Z,2.67
2018-09-30T08:37:22.083Z,5.03
2018-09-30T08:39:26.350Z,4.60
2018-09-30T08:41:30.561Z,4.67
2018-09-30T08:43:36.059Z,4.10
2018-09-30T08:45:40.242Z,4.23
2018-09-30T08:47:44.582Z,4.23
2018-09-30T08:49:48.676Z,3.27
2018-09-30T08:51:52.855Z,4.30
2018-09-30T08:53:57.096Z,4.17
2018-09-30T08:56:01.290Z,4.00
2018-09-30T08:58:05.514Z,5.20
2018-09-30T09:00:09.726Z,4.53
2018-09-30T09:02:14.046Z,3.23
2018-09-30T09:04:18.218Z,4.90
2018-09-30T09:06:22.395Z,5.37
2018-09-30T09:08:26.657Z,4.73
2018-09-30T09:10:30.916Z,4.87
2018-09-30T09:12:35.210Z,4.43
2018-09-30T09:14:39.405Z,4.60
2018-09-30T09:16:43.734Z,5.60
2018-09-30T09:18:48.020Z,5.80
2018-09-30T09:20:52.176Z,4.87
2018-09-30T09:23:00.827Z,5.63
2018-09-30T09:25:05.379Z,4.87
2018-09-30T09:27:09.574Z,5.47
2018-09-30T09:29:19.512Z,6.47
2018-09-30T09:31:23.731Z,5.40
2018-09-30T09:33:27.899Z,6.43
2018-09-30T09:35:32.123Z,5.37
2018-09-30T09:37:36.874Z,5.93
2018-09-30T09:39:41.109Z,5.67
2018-09-30T09:41:45.324Z,5.83
2018-09-30T09:43:56.187Z,7.23
2018-09-30T09:46:00.680Z,6.23
2018-09-30T09:48:04.942Z,5.43
2018-09-30T09:50:11.524Z,6.50
2018-09-30T09:52:18.435Z,6.03
2018-09-30T09:54:22.646Z,5.83
2018-09-30T09:56:26.858Z,5.60
2018-09-30T09:58:31.073Z,6.53
2018-09-30T10:00:45.176Z,5.50
2018-09-30T10:02:49.371Z,4.90
2018-09-30T10:04:53.622Z,6.47
2018-09-30T10:06:57.805Z,6.03
2018-09-30T10:09:02.008Z,5.43
2018-09-30T10:11:06.231Z,5.23
2018-09-30T10:13:10.696Z,5.70
2018-09-30T10:15:16.024Z,6.33
2018-09-30T10:17:20.231Z,5.63
2018-09-30T10:19:24.544Z,5.20
2018-09-30T10:21:28.886Z,4.73
2018-09-30T10:23:33.031Z,4.83
2018-09-30T10:25:37.208Z,5.10
2018-09-30T10:27:41.434Z,3.70
2018-09-30T10:29:45.646Z,3.90
2018-09-30T10:31:49.872Z,3.40
2018-09-30T10:33:54.122Z,3.50
2018-09-30T10:35:58.253Z,5.53
2018-09-30T10:38:02.485Z,4.60
2018-09-30T10:40:07.199Z,4.72
2018-09-30T10:42:11.379Z,4.07
2018-09-30T10:44:15.594Z,4.20
2018-09-30T10:46:19.806Z,3.77
2018-09-30T10:48:24.047Z,4.77
2018-09-30T10:50:28.181Z,4.27
2018-09-30T10:52:32.428Z,3.87
2018-09-30T10:54:36.626Z,4.13
2018-09-30T10:56:40.773Z,4.00
2018-09-30T10:58:44.974Z,3.93
2018-09-30T11:00:49.267Z,3.40
2018-09-30T11:02:53.774Z,3.57
2018-09-30T11:04:57.943Z,3.70
2018-09-30T11:07:04.191Z,4.67
2018-09-30T11:09:08.715Z,3.93
2018-09-30T11:11:12.909Z,4.60
2018-09-30T11:13:20.813Z,4.03
2018-09-30T11:15:25.076Z,4.40
2018-09-30T11:17:29.304Z,2.83
2018-09-30T11:19:33.546Z,2.73
2018-09-30T11:21:38.333Z,3.27
2018-09-30T11:23:42.510Z,2.97
2018-09-30T11:25:46.738Z,2.90
2018-09-30T11:27:50.936Z,3.00
2018-09-30T11:29:55.114Z,4.13
2018-09-30T11:31:59.427Z,2.97
2018-09-30T11:34:03.544Z,3.33
2018-09-30T11:36:07.782Z,3.03
2018-09-30T11:38:11.957Z,3.30
2018-09-30T11:40:16.088Z,2.90
2018-09-30T11:42:20.309Z,3.30
2018-09-30T11:44:24.594Z,3.17
2018-09-30T11:46:28.770Z,4.00
2018-09-30T11:48:47.761Z,3.47
2018-09-30T11:50:52.594Z,3.30
2018-09-30T11:52:56.843Z,3.57
2018-09-30T11:55:01.888Z,2.80
2018-09-30T11:57:06.141Z,3.00
2018-09-30T11:59:10.335Z,3.47
2018-09-30T12:01:14.575Z,3.70
2018-09-30T12:03:18.830Z,3.13
2018-09-30T12:05:23.105Z,3.40
2018-09-30T12:07:28.898Z,3.07
2018-09-30T12:09:33.049Z,2.93
2018-09-30T12:11:37.374Z,2.53
2018-09-30T12:13:46.423Z,3.33
2018-09-30T12:15:50.667Z,2.80
2018-09-30T12:17:54.910Z,2.77
2018-09-30T12:20:04.242Z,3.57
2018-09-30T12:22:08.499Z,2.70
2018-09-30T12:24:12.737Z,3.63
2018-09-30T12:26:16.948Z,2.40
2018-09-30T12:28:26.371Z,2.13
2018-09-30T12:30:30.549Z,2.33
2018-09-30T12:32:36.057Z,2.80
2018-09-30T12:34:41.145Z,2.33
2018-09-30T12:36:45.387Z,2.47
2018-09-30T12:38:49.646Z,2.40
2018-09-30T12:40:53.809Z,2.10
2018-09-30T12:42:58.006Z,2.80
2018-09-30T12:45:02.179Z,1.80
2018-09-30T12:47:06.339Z,2.57
2018-09-30T12:49:10.535Z,2.40
2018-09-30T12:51:14.737Z,2.43
2018-09-30T12:53:18.963Z,2.80
2018-09-30T12:55:27.791Z,2.57
2018-09-30T12:57:32.432Z,2.53
2018-09-30T12:59:36.733Z,3.73
2018-09-30T13:01:40.878Z,3.13
2018-09-30T13:03:45.083Z,3.53
2018-09-30T13:05:49.284Z,3.40
2018-09-30T13:07:55.978Z,2.57
2018-09-30T13:10:00.151Z,2.57
2018-09-30T13:12:04.401Z,3.00
2018-09-30T13:14:08.958Z,2.70
2018-09-30T13:16:13.150Z,2.60
2018-09-30T13:18:17.397Z,3.10
2018-09-30T13:20:21.645Z,3.03
2018-09-30T13:22:25.866Z,2.50
2018-09-30T13:24:30.127Z,3.00
2018-09-30T13:26:34.465Z,2.20
2018-09-30T13:28:38.623Z,2.83
2018-09-30T13:30:42.837Z,2.80
2018-09-30T13:32:47.026Z,2.63
2018-09-30T13:34:51.215Z,3.23
2018-09-30T13:36:55.378Z,2.50
2018-09-30T13:39:02.503Z,2.73
2018-09-30T13:41:07.013Z,2.70
2018-09-30T13:43:11.142Z,2.97
2018-09-30T13:45:15.330Z,2.40
2018-09-30T13:47:19.513Z,2.77
2018-09-30T13:49:24.163Z,3.00
2018-09-30T13:51:28.315Z,2.13
2018-09-30T13:53:32.471Z,2.43
2018-09-30T13:55:36.651Z,2.30
2018-09-30T13:57:40.814Z,2.63
2018-09-30T13:59:45.075Z,2.63
2018-09-30T14:01:49.790Z,2.83
2018-09-30T14:03:54.069Z,2.70
2018-09-30T14:05:58.265Z,2.70
2018-09-30T14:08:02.927Z,2.33
2018-09-30T14:10:07.205Z,2.30
2018-09-30T14:12:11.411Z,1.70
2018-09-30T14:14:15.591Z,1.77
2018-09-30T14:16:19.778Z,2.17
2018-09-30T14:18:23.960Z,2.47
2018-09-30T14:20:28.205Z,2.20
2018-09-30T14:22:32.431Z,2.00
2018-09-30T14:24:37.027Z,2.47
2018-09-30T14:26:41.265Z,3.30
2018-09-30T14:28:45.429Z,2.27
2018-09-30T14:30:49.966Z,2.00
2018-09-30T14:32:54.141Z,2.50
2018-09-30T14:34:58.405Z,1.80
2018-09-30T14:37:02.649Z,1.97
2018-09-30T14:39:09.981Z,2.50
2018-09-30T14:41:14.178Z,1.97
2018-09-30T14:43:18.393Z,2.23
2018-09-30T14:45:22.665Z,2.20
2018-09-30T14:47:26.839Z,2.40
2018-09-30T14:49:31.022Z,2.23
2018-09-30T14:51:35.549Z,2.97
2018-09-30T14:53:39.697Z,2.47
2018-09-30T14:55:43.863Z,2.90
2018-09-30T14:57:48.085Z,2.60
2018-09-30T14:59:52.408Z,2.83
2018-09-30T15:01:56.517Z,2.80
2018-09-30T15:04:01.216Z,2.60
2018-09-30T15:06:05.805Z,2.87
2018-09-30T15:08:10.198Z,2.67
2018-09-30T15:10:15.423Z,2.67
2018-09-30T15:12:19.602Z,3.17
2018-09-30T15:14:23.977Z,3.00
2018-09-30T15:16:28.222Z,2.90
2018-09-30T15:18:32.381Z,3.63
2018-09-30T15:20:36.584Z,3.33
2018-09-30T15:22:40.753Z,3.40
2018-09-30T15:24:44.924Z,3.53
2018-09-30T15:26:49.107Z,3.20
2018-09-30T15:28:53.257Z,3.50
2018-09-30T15:30:57.518Z,3.13
2018-09-30T15:33:01.645Z,3.00
2018-09-30T15:35:06.391Z,4.00
2018-09-30T15:37:10.664Z,4.07
2018-09-30T15:39:14.818Z,3.53
2018-09-30T15:41:19.036Z,4.40
2018-09-30T15:43:23.241Z,2.27
2018-09-30T15:45:27.454Z,3.10
2018-09-30T15:47:31.663Z,3.80
2018-09-30T15:49:35.916Z,3.27
2018-09-30T15:51:40.091Z,4.13
2018-09-30T15:53:44.261Z,3.73
2018-09-30T15:55:48.462Z,3.93
2018-09-30T15:57:52.639Z,4.00
2018-09-30T15:59:56.812Z,3.07
2018-09-30T16:02:01.003Z,3.00
2018-09-30T16:04:05.192Z,4.20
2018-09-30T16:06:09.408Z,3.83
2018-09-30T16:08:13.655Z,3.00
2018-09-30T16:10:17.850Z,3.97
2018-09-30T16:12:22.010Z,3.50
2018-09-30T16:14:26.264Z,3.57
2018-09-30T16:16:30.409Z,3.87
2018-09-30T16:18:34.891Z,3.10
2018-09-30T16:20:39.195Z,2.83
2018-09-30T16:22:43.454Z,3.33
2018-09-30T16:24:47.721Z,3.33
2018-09-30T16:26:51.872Z,2.37
2018-09-30T16:28:56.114Z,3.50
2018-09-30T16:31:00.309Z,3.70
2018-09-30T16:33:04.493Z,2.60
2018-09-30T16:35:09.802Z,2.70
2018-09-30T16:37:13.947Z,2.83
2018-09-30T16:39:18.160Z,3.07
2018-09-30T16:41:22.352Z,3.23
2018-09-30T16:43:26.578Z,2.40
2018-09-30T16:45:30.879Z,2.73
2018-09-30T16:47:35.014Z,3.07
2018-09-30T16:49:39.221Z,3.17
2018-09-30T16:51:43.441Z,2.70
2018-09-30T16:53:47.678Z,3.20
2018-09-30T16:55:51.909Z,3.13
2018-09-30T16:57:56.101Z,2.77
2018-09-30T17:00:00.282Z,3.40
2018-09-30T17:02:04.479Z,3.60
2018-09-30T17:04:08.664Z,3.10
2018-09-30T17:06:12.961Z,2.50
2018-09-30T17:08:17.134Z,4.47
2018-09-30T17:10:21.333Z,2.90
2018-09-30T17:12:25.496Z,3.27
2018-09-30T17:14:29.666Z,4.67
2018-09-30T17:16:33.855Z,4.17
2018-09-30T17:18:38.054Z,4.23
2018-09-30T17:20:42.271Z,3.87
2018-09-30T17:22:46.500Z,4.20
2018-09-30T17:24:50.696Z,3.80
2018-09-30T17:26:54.900Z,4.70
2018-09-30T17:28:59.069Z,4.60
2018-09-30T17:31:03.328Z,4.40
2018-09-30T17:33:07.611Z,4.17
2018-09-30T17:35:11.760Z,3.40
2018-09-30T17:37:15.927Z,4.13
2018-09-30T17:39:20.141Z,4.27
2018-09-30T17:41:24.339Z,4.03
2018-09-30T17:43:28.551Z,3.97
2018-09-30T17:45:32.719Z,3.67
2018-09-30T17:47:36.933Z,4.20
2018-09-30T17:49:41.161Z,3.83
2018-09-30T17:51:45.407Z,4.20
2018-09-30T17:53:49.667Z,3.90
2018-09-30T17:55:54.090Z,4.00
2018-09-30T17:57:58.296Z,3.63
2018-09-30T18:00:02.508Z,3.97
2018-09-30T18:02:06.659Z,3.63
2018-09-30T18:04:10.884Z,3.80
2018-09-30T18:06:15.327Z,4.27
2018-09-30T18:08:19.560Z,4.10
2018-09-30T18:10:23.664Z,4.07
2018-09-30T18:12:27.859Z,5.00
2018-09-30T18:14:32.062Z,3.90
2018-09-30T18:16:36.264Z,4.33
2018-09-30T18:18:40.434Z,4.47
2018-09-30T18:20:44.619Z,4.00
2018-09-30T18:22:48.890Z,4.00
2018-09-30T18:24:53.107Z,4.27
2018-09-30T18:26:57.333Z,3.93
2018-09-30T18:29:01.606Z,4.17
2018-09-30T18:31:05.807Z,3.60
2018-09-30T18:33:10.086Z,4.13
2018-09-30T18:35:14.359Z,4.33
2018-09-30T18:37:18.550Z,4.73
2018-09-30T18:39:22.770Z,3.90
2018-09-30T18:41:26.991Z,3.57
2018-09-30T18:43:31.174Z,4.07
2018-09-30T18:45:35.391Z,4.70
2018-09-30T18:47:39.566Z,5.67
2018-09-30T18:49:43.818Z,5.20
2018-09-30T18:51:47.997Z,4.80
2018-09-30T18:53:52.200Z,4.40
2018-09-30T18:55:56.532Z,4.10
2018-09-30T18:58:01.111Z,4.70
2018-09-30T19:00:05.406Z,4.00
2018-09-30T19:02:09.596Z,4.57
2018-09-30T19:04:13.806Z,4.37
2018-09-30T19:06:18.148Z,5.50
2018-09-30T19:08:22.402Z,5.00
2018-09-30T19:10:26.705Z,4.80
2018-09-30T19:12:30.883Z,5.17
2018-09-30T19:14:35.059Z,4.70
2018-09-30T19:16:39.316Z,5.60
2018-09-30T19:18:43.511Z,4.47
2018-09-30T19:20:47.684Z,4.23
2018-09-30T19:22:52.888Z,4.27
2018-09-30T19:24:57.200Z,4.20
2018-09-30T19:27:01.777Z,4.70
2018-09-30T19:29:06.033Z,4.27
2018-09-30T19:31:10.232Z,4.07
2018-09-30T19:33:14.403Z,3.93
2018-09-30T19:35:18.611Z,4.40
2018-09-30T19:37:22.791Z,4.60
2018-09-30T19:39:27.034Z,3.97
2018-09-30T19:41:31.198Z,4.90
2018-09-30T19:43:35.470Z,4.47
2018-09-30T19:45:39.798Z,4.40
2018-09-30T19:47:43.970Z,4.47
2018-09-30T19:49:48.224Z,4.70
2018-09-30T19:51:52.422Z,4.27
2018-09-30T19:53:56.624Z,4.13
2018-09-30T19:56:00.820Z,5.87
2018-09-30T19:58:05.081Z,4.80
2018-09-30T20:00:09.270Z,6.97
2018-09-30T20:02:13.408Z,5.37
2018-09-30T20:04:18.036Z,6.17
2018-09-30T20:06:22.241Z,6.37
2018-09-30T20:08:26.436Z,8.17
2018-09-30T20:10:30.810Z,7.57
2018-09-30T20:12:35.040Z,6.03
2018-09-30T20:14:39.257Z,6.97
2018-09-30T20:16:43.471Z,6.40
2018-09-30T20:18:58.809Z,5.27
2018-09-30T20:21:03.343Z,6.17
2018-09-30T20:23:08.496Z,4.73
2018-09-30T20:25:15.136Z,4.63
2018-09-30T20:27:19.342Z,4.57
2018-09-30T20:29:23.571Z,5.00
2018-09-30T20:31:30.601Z,5.47
2018-09-30T20:33:35.663Z,5.03
2018-09-30T20:35:39.863Z,5.10
2018-09-30T20:37:44.119Z,5.07
2018-09-30T20:39:48.425Z,4.30
2018-09-30T20:41:52.635Z,4.23
2018-09-30T20:43:57.213Z,4.70
2018-09-30T20:46:01.470Z,5.83
2018-09-30T20:48:08.956Z,4.67
2018-09-30T20:50:13.231Z,4.67
2018-09-30T20:52:17.431Z,4.77
2018-09-30T20:54:21.607Z,4.30
2018-09-30T20:56:26.003Z,4.70
2018-09-30T20:58:30.218Z,4.30
2018-09-30T21:00:34.448Z,4.07
2018-09-30T21:02:38.635Z,3.23
2018-09-30T21:04:42.895Z,4.10
2018-09-30T21:06:47.102Z,4.30
2018-09-30T21:08:51.295Z,3.47
2018-09-30T21:10:55.467Z,3.70
2018-09-30T21:13:00.021Z,3.67
2018-09-30T21:15:04.234Z,3.47
2018-09-30T21:17:08.408Z,3.33
2018-09-30T21:19:12.615Z,3.37
2018-09-30T21:21:16.806Z,2.90
2018-09-30T21:23:21.004Z,3.43
2018-09-30T21:25:25.236Z,2.63
2018-09-30T21:27:29.462Z,2.83
2018-09-30T21:29:33.679Z,2.60
2018-09-30T21:31:37.940Z,2.17
2018-09-30T21:33:42.090Z,2.60
2018-09-30T21:35:46.682Z,2.17
2018-09-30T21:37:50.998Z,2.43
2018-09-30T21:39:55.222Z,3.20
2018-09-30T21:41:59.431Z,2.20
2018-09-30T21:44:03.722Z,2.70
2018-09-30T21:46:08.007Z,2.20
2018-09-30T21:48:13.003Z,2.10
2018-09-30T21:50:17.191Z,2.50
2018-09-30T21:52:21.366Z,2.20
2018-09-30T21:54:25.581Z,2.20
2018-09-30T21:56:29.766Z,2.17
2018-09-30T21:58:33.998Z,2.70
2018-09-30T22:01:09.803Z,2.50
2018-09-30T22:03:14.772Z,2.10
2018-09-30T22:05:18.942Z,2.60
2018-09-30T22:07:23.294Z,2.70
2018-09-30T22:09:27.477Z,2.43
2018-09-30T22:11:31.709Z,2.80
2018-09-30T22:13:35.935Z,2.17
2018-09-30T22:15:40.353Z,2.10
2018-09-30T22:17:44.546Z,2.53
2018-09-30T22:19:48.758Z,2.40
2018-09-30T22:21:52.897Z,1.93
2018-09-30T22:23:57.163Z,1.87
2018-09-30T22:26:01.433Z,2.00
2018-09-30T22:28:05.650Z,2.80
2018-09-30T22:30:09.899Z,2.20
2018-09-30T22:32:14.090Z,2.20
2018-09-30T22:34:18.334Z,2.10
2018-09-30T22:36:22.594Z,2.10
2018-09-30T22:38:26.857Z,1.97
2018-09-30T22:40:31.095Z,2.60
2018-09-30T22:42:35.531Z,2.40
2018-09-30T22:44:39.780Z,2.50
2018-09-30T22:46:43.993Z,2.60
2018-09-30T22:48:48.222Z,2.67
2018-09-30T22:50:52.410Z,2.10
2018-09-30T22:52:56.662Z,2.00
2018-09-30T22:55:00.931Z,2.47
2018-09-30T22:57:05.119Z,3.10
2018-09-30T22:59:09.315Z,3.70
2018-09-30T23:01:13.543Z,2.43
2018-09-30T23:03:17.837Z,2.20
2018-09-30T23:05:22.033Z,2.57
2018-09-30T23:07:26.610Z,1.90
2018-09-30T23:09:30.885Z,2.60
2018-09-30T23:11:35.122Z,2.53
2018-09-30T23:13:39.305Z,2.27
2018-09-30T23:15:43.507Z,2.27
2018-09-30T23:17:47.730Z,2.27
2018-09-30T23:19:51.959Z,2.23
2018-09-30T23:21:56.152Z,2.70
2018-09-30T23:24:00.432Z,2.00
2018-09-30T23:26:04.610Z,2.00
2018-09-30T23:28:08.819Z,3.53
2018-09-30T23:30:13.204Z,2.33
2018-09-30T23:32:17.458Z,2.67
2018-09-30T23:34:21.701Z,2.40
2018-09-30T23:36:25.919Z,2.57
2018-09-30T23:38:30.133Z,2.10
2018-09-30T23:40:34.384Z,1.93
2018-09-30T23:42:38.683Z,2.30
2018-09-30T23:44:42.845Z,2.10
2018-09-30T23:46:47.053Z,2.20
2018-09-30T23:48:51.374Z,2.03
2018-09-30T23:50:55.603Z,2.50
2018-09-30T23:53:00.105Z,2.03
2018-09-30T23:55:04.399Z,2.60
2018-09-30T23:57:08.635Z,2.03
2018-09-30T23:59:12.850Z,2.47
